ローマ/フィウミチーノ の空港の天気 - METARとTAF

ローマ・レオナルド・ダ・ビンチ国際空港 ( LIRF / FCO ) - イタリア ローマ
飛行場実況気象(Metar)
観測時間10/19 20:20 CEST (10/19 18:20 UTC)
風向・風速西北西 2m/s
視程10km以上
天気現象
なし
気温20℃
湿度88%
気圧1017hPa
METARLIRF 191820Z 30004KT CAVOK 20/18 Q1017 NOSIG
過去の天気等 Google飛行場航空写真 Wunderground天気予報

過去48時間のMETAR

飛行場予報(TAF)
発表時間: 10/19 19:00 CEST (10/19 17:00 UTC)
予報対象時間: 19日20時 CEST ~ 21日2時 CEST
風向・風速不定 3m/s
視程10km以上
なし
20日13時 CEST ~ 20日15時 CEST に徐々に
風向・風速西 5m/s
20日19時 CEST ~ 20日21時 CEST に徐々に
風向・風速不定 3m/s
TAF LIRF 191700Z 1918/2024 VRB05KT CAVOK
BECMG 2011/2013 28010KT
BECMG 2017/2019 VRB05KT